sensor_id;sensor_type;location;lat;lon;timestamp;temperature;humidity
16485;DHT22;8353;47.856;12.344;2023-03-24T00:01:39;15.30;99.90
16485;DHT22;8353;47.856;12.344;2023-03-24T00:04:26;15.30;99.90
16485;DHT22;8353;47.856;12.344;2023-03-24T00:07:14;15.40;99.90
16485;DHT22;8353;47.856;12.344;2023-03-24T00:10:02;15.30;99.90
16485;DHT22;8353;47.856;12.344;2023-03-24T00:12:51;15.40;99.90
16485;DHT22;8353;47.856;12.344;2023-03-24T00:15:38;15.30;99.90
16485;DHT22;8353;47.856;12.344;2023-03-24T00:18:26;15.20;99.90
16485;DHT22;8353;47.856;12.344;2023-03-24T00:21:14;15.10;99.90
16485;DHT22;8353;47.856;12.344;2023-03-24T00:24:04;15.10;99.90
16485;DHT22;8353;47.856;12.344;2023-03-24T00:26:52;15.10;99.90
16485;DHT22;8353;47.856;12.344;2023-03-24T00:29:43;15.00;99.90
16485;DHT22;8353;47.856;12.344;2023-03-24T00:32:29;15.00;99.90
16485;DHT22;8353;47.856;12.344;2023-03-24T00:35:18;14.90;99.90
16485;DHT22;8353;47.856;12.344;2023-03-24T00:38:05;14.90;99.90
16485;DHT22;8353;47.856;12.344;2023-03-24T00:40:52;14.90;99.90
16485;DHT22;8353;47.856;12.344;2023-03-24T00:43:39;14.90;99.90
16485;DHT22;8353;47.856;12.344;2023-03-24T00:46:26;14.90;99.90
16485;DHT22;8353;47.856;12.344;2023-03-24T00:49:13;14.90;99.90
16485;DHT22;8353;47.856;12.344;2023-03-24T00:52:03;14.90;99.90
16485;DHT22;8353;47.856;12.344;2023-03-24T00:54:55;14.90;99.90
16485;DHT22;8353;47.856;12.344;2023-03-24T00:57:44;14.90;99.90
16485;DHT22;8353;47.856;12.344;2023-03-24T01:00:35;14.80;99.90
16485;DHT22;8353;47.856;12.344;2023-03-24T01:03:26;14.80;99.90
16485;DHT22;8353;47.856;12.344;2023-03-24T01:06:13;14.80;99.90
16485;DHT22;8353;47.856;12.344;2023-03-24T01:09:01;14.80;99.90
16485;DHT22;8353;47.856;12.344;2023-03-24T01:11:48;14.80;99.90
16485;DHT22;8353;47.856;12.344;2023-03-24T01:14:36;14.80;99.90
16485;DHT22;8353;47.856;12.344;2023-03-24T01:17:22;14.80;99.90
16485;DHT22;8353;47.856;12.344;2023-03-24T01:20:10;14.80;99.90
16485;DHT22;8353;47.856;12.344;2023-03-24T01:22:57;14.50;99.90
16485;DHT22;8353;47.856;12.344;2023-03-24T01:25:46;14.50;99.90
16485;DHT22;8353;47.856;12.344;2023-03-24T01:28:34;14.60;99.90
16485;DHT22;8353;47.856;12.344;2023-03-24T01:31:25;14.70;99.90
16485;DHT22;8353;47.856;12.344;2023-03-24T01:34:12;14.60;99.90
16485;DHT22;8353;47.856;12.344;2023-03-24T01:36:59;14.50;99.90
16485;DHT22;8353;47.856;12.344;2023-03-24T01:39:46;14.50;99.90
16485;DHT22;8353;47.856;12.344;2023-03-24T01:42:35;14.40;99.90
16485;DHT22;8353;47.856;12.344;2023-03-24T01:46:05;14.40;99.90
16485;DHT22;8353;47.856;12.344;2023-03-24T01:48:55;14.50;99.90
16485;DHT22;8353;47.856;12.344;2023-03-24T01:51:46;14.50;99.90
16485;DHT22;8353;47.856;12.344;2023-03-24T01:54:37;14.50;99.90
16485;DHT22;8353;47.856;12.344;2023-03-24T01:57:29;14.60;99.90
16485;DHT22;8353;47.856;12.344;2023-03-24T02:00:21;14.60;99.90
16485;DHT22;8353;47.856;12.344;2023-03-24T02:03:11;14.50;99.90
16485;DHT22;8353;47.856;12.344;2023-03-24T02:05:59;14.50;99.90
16485;DHT22;8353;47.856;12.344;2023-03-24T02:08:51;14.40;99.90
16485;DHT22;8353;47.856;12.344;2023-03-24T02:11:39;14.30;99.90
16485;DHT22;8353;47.856;12.344;2023-03-24T02:14:26;14.40;99.90
16485;DHT22;8353;47.856;12.344;2023-03-24T02:17:34;14.30;99.90
16485;DHT22;8353;47.856;12.344;2023-03-24T02:20:51;14.30;99.90
16485;DHT22;8353;47.856;12.344;2023-03-24T02:27:38;14.20;99.90
16485;DHT22;8353;47.856;12.344;2023-03-24T02:34:13;14.20;99.90
16485;DHT22;8353;47.856;12.344;2023-03-24T02:37:22;14.10;99.90
16485;DHT22;8353;47.856;12.344;2023-03-24T02:40:29;14.00;99.90
16485;DHT22;8353;47.856;12.344;2023-03-24T02:43:30;14.10;99.90
16485;DHT22;8353;47.856;12.344;2023-03-24T02:46:22;14.20;99.90
16485;DHT22;8353;47.856;12.344;2023-03-24T02:49:18;14.00;99.90
16485;DHT22;8353;47.856;12.344;2023-03-24T02:52:13;14.10;99.90
16485;DHT22;8353;47.856;12.344;2023-03-24T02:55:06;14.20;99.90
16485;DHT22;8353;47.856;12.344;2023-03-24T02:57:59;14.20;99.90
16485;DHT22;8353;47.856;12.344;2023-03-24T03:00:50;14.20;99.90
16485;DHT22;8353;47.856;12.344;2023-03-24T03:03:40;14.30;99.90
16485;DHT22;8353;47.856;12.344;2023-03-24T03:06:31;14.40;99.90
16485;DHT22;8353;47.856;12.344;2023-03-24T03:09:20;14.30;99.90
16485;DHT22;8353;47.856;12.344;2023-03-24T03:12:09;14.20;99.90
16485;DHT22;8353;47.856;12.344;2023-03-24T03:15:03;14.20;99.90
16485;DHT22;8353;47.856;12.344;2023-03-24T03:17:52;14.20;99.90
16485;DHT22;8353;47.856;12.344;2023-03-24T03:20:46;14.20;99.90
16485;DHT22;8353;47.856;12.344;2023-03-24T03:23:40;14.20;99.90
16485;DHT22;8353;47.856;12.344;2023-03-24T03:26:30;14.20;99.90
16485;DHT22;8353;47.856;12.344;2023-03-24T03:29:20;14.20;99.90
16485;DHT22;8353;47.856;12.344;2023-03-24T03:32:14;14.20;99.90
16485;DHT22;8353;47.856;12.344;2023-03-24T03:35:07;14.20;99.90
16485;DHT22;8353;47.856;12.344;2023-03-24T03:37:57;14.10;99.90
16485;DHT22;8353;47.856;12.344;2023-03-24T03:40:50;14.00;99.90
16485;DHT22;8353;47.856;12.344;2023-03-24T03:43:37;14.00;99.90
16485;DHT22;8353;47.856;12.344;2023-03-24T03:46:24;13.90;99.90
16485;DHT22;8353;47.856;12.344;2023-03-24T03:49:13;13.80;99.90
16485;DHT22;8353;47.856;12.344;2023-03-24T03:52:00;13.80;99.90
16485;DHT22;8353;47.856;12.344;2023-03-24T03:54:47;13.80;99.90
16485;DHT22;8353;47.856;12.344;2023-03-24T03:57:35;13.80;99.90
16485;DHT22;8353;47.856;12.344;2023-03-24T04:00:22;13.80;99.90
16485;DHT22;8353;47.856;12.344;2023-03-24T04:03:23;13.70;99.90
16485;DHT22;8353;47.856;12.344;2023-03-24T04:06:21;13.70;99.90
16485;DHT22;8353;47.856;12.344;2023-03-24T04:09:20;13.70;99.90
16485;DHT22;8353;47.856;12.344;2023-03-24T04:12:36;13.80;99.90
16485;DHT22;8353;47.856;12.344;2023-03-24T04:15:35;13.90;99.90
16485;DHT22;8353;47.856;12.344;2023-03-24T04:18:44;13.90;99.90
16485;DHT22;8353;47.856;12.344;2023-03-24T04:21:45;13.90;99.90
16485;DHT22;8353;47.856;12.344;2023-03-24T04:24:39;13.90;99.90
16485;DHT22;8353;47.856;12.344;2023-03-24T04:27:35;13.80;99.90
16485;DHT22;8353;47.856;12.344;2023-03-24T04:30:30;13.90;99.90
16485;DHT22;8353;47.856;12.344;2023-03-24T04:33:21;14.00;99.90
16485;DHT22;8353;47.856;12.344;2023-03-24T04:36:15;14.00;99.90
16485;DHT22;8353;47.856;12.344;2023-03-24T04:39:05;14.00;99.90
16485;DHT22;8353;47.856;12.344;2023-03-24T04:41:53;13.90;99.90
16485;DHT22;8353;47.856;12.344;2023-03-24T04:44:41;13.80;99.90
16485;DHT22;8353;47.856;12.344;2023-03-24T04:47:31;13.80;99.90
16485;DHT22;8353;47.856;12.344;2023-03-24T04:50:27;13.70;99.90
16485;DHT22;8353;47.856;12.344;2023-03-24T04:53:15;13.70;99.90
16485;DHT22;8353;47.856;12.344;2023-03-24T04:56:12;13.70;99.90
16485;DHT22;8353;47.856;12.344;2023-03-24T04:59:05;13.80;99.90
16485;DHT22;8353;47.856;12.344;2023-03-24T05:01:53;13.80;99.90
16485;DHT22;8353;47.856;12.344;2023-03-24T05:04:39;13.80;99.90
16485;DHT22;8353;47.856;12.344;2023-03-24T05:07:26;13.90;99.90
16485;DHT22;8353;47.856;12.344;2023-03-24T05:10:13;13.90;99.90
16485;DHT22;8353;47.856;12.344;2023-03-24T05:13:03;13.80;99.90
16485;DHT22;8353;47.856;12.344;2023-03-24T05:15:51;13.70;99.90
16485;DHT22;8353;47.856;12.344;2023-03-24T05:18:38;13.60;99.90
16485;DHT22;8353;47.856;12.344;2023-03-24T05:21:25;13.70;99.90
16485;DHT22;8353;47.856;12.344;2023-03-24T05:24:12;13.60;99.90
16485;DHT22;8353;47.856;12.344;2023-03-24T05:26:59;13.70;99.90
16485;DHT22;8353;47.856;12.344;2023-03-24T05:29:47;13.70;99.90
16485;DHT22;8353;47.856;12.344;2023-03-24T05:32:34;13.70;99.90
16485;DHT22;8353;47.856;12.344;2023-03-24T05:35:21;13.80;99.90
16485;DHT22;8353;47.856;12.344;2023-03-24T05:38:09;13.80;99.90
16485;DHT22;8353;47.856;12.344;2023-03-24T05:40:56;13.70;99.90
16485;DHT22;8353;47.856;12.344;2023-03-24T05:43:43;13.80;99.90
16485;DHT22;8353;47.856;12.344;2023-03-24T05:46:32;13.80;99.90
16485;DHT22;8353;47.856;12.344;2023-03-24T05:49:19;13.80;99.90
16485;DHT22;8353;47.856;12.344;2023-03-24T05:52:06;13.70;99.90
16485;DHT22;8353;47.856;12.344;2023-03-24T05:54:53;13.60;99.90
16485;DHT22;8353;47.856;12.344;2023-03-24T05:57:40;13.70;99.90
16485;DHT22;8353;47.856;12.344;2023-03-24T06:00:28;13.70;99.90
16485;DHT22;8353;47.856;12.344;2023-03-24T06:03:16;13.70;99.90
16485;DHT22;8353;47.856;12.344;2023-03-24T06:06:04;13.70;99.90
16485;DHT22;8353;47.856;12.344;2023-03-24T06:08:52;13.70;99.90
16485;DHT22;8353;47.856;12.344;2023-03-24T06:11:40;13.70;99.90
16485;DHT22;8353;47.856;12.344;2023-03-24T06:14:27;13.80;99.90
16485;DHT22;8353;47.856;12.344;2023-03-24T06:17:19;13.90;99.90
16485;DHT22;8353;47.856;12.344;2023-03-24T06:20:08;13.90;99.90
16485;DHT22;8353;47.856;12.344;2023-03-24T06:23:00;13.90;99.90
16485;DHT22;8353;47.856;12.344;2023-03-24T06:25:47;13.80;99.90
16485;DHT22;8353;47.856;12.344;2023-03-24T06:28:35;13.90;99.90
16485;DHT22;8353;47.856;12.344;2023-03-24T06:31:24;13.90;99.90
16485;DHT22;8353;47.856;12.344;2023-03-24T06:34:14;14.00;99.90
16485;DHT22;8353;47.856;12.344;2023-03-24T06:37:03;14.00;99.90
16485;DHT22;8353;47.856;12.344;2023-03-24T06:39:50;14.10;99.90
16485;DHT22;8353;47.856;12.344;2023-03-24T06:42:38;13.90;99.90
16485;DHT22;8353;47.856;12.344;2023-03-24T06:45:27;13.80;99.90
16485;DHT22;8353;47.856;12.344;2023-03-24T06:48:13;13.80;99.90
16485;DHT22;8353;47.856;12.344;2023-03-24T06:51:00;13.90;99.90
16485;DHT22;8353;47.856;12.344;2023-03-24T06:53:48;13.90;99.90
16485;DHT22;8353;47.856;12.344;2023-03-24T06:56:36;14.10;99.90
16485;DHT22;8353;47.856;12.344;2023-03-24T06:59:22;14.20;99.90
16485;DHT22;8353;47.856;12.344;2023-03-24T07:02:12;14.20;99.90
16485;DHT22;8353;47.856;12.344;2023-03-24T07:04:59;14.20;99.90
16485;DHT22;8353;47.856;12.344;2023-03-24T07:07:49;14.30;99.90
16485;DHT22;8353;47.856;12.344;2023-03-24T07:10:38;14.40;99.90
16485;DHT22;8353;47.856;12.344;2023-03-24T07:13:25;14.40;99.90
16485;DHT22;8353;47.856;12.344;2023-03-24T07:16:13;14.50;99.90
16485;DHT22;8353;47.856;12.344;2023-03-24T07:19:00;14.60;99.90
16485;DHT22;8353;47.856;12.344;2023-03-24T07:21:47;14.80;99.90
16485;DHT22;8353;47.856;12.344;2023-03-24T07:24:34;14.80;99.90
16485;DHT22;8353;47.856;12.344;2023-03-24T07:27:23;14.80;99.90
16485;DHT22;8353;47.856;12.344;2023-03-24T07:30:10;14.90;99.90
16485;DHT22;8353;47.856;12.344;2023-03-24T07:32:57;14.90;99.90
16485;DHT22;8353;47.856;12.344;2023-03-24T07:35:46;14.90;99.90
16485;DHT22;8353;47.856;12.344;2023-03-24T07:38:33;15.00;99.90
16485;DHT22;8353;47.856;12.344;2023-03-24T07:41:20;15.10;99.90
16485;DHT22;8353;47.856;12.344;2023-03-24T07:44:09;15.20;99.90
16485;DHT22;8353;47.856;12.344;2023-03-24T07:46:58;15.30;99.90
16485;DHT22;8353;47.856;12.344;2023-03-24T07:49:46;15.40;99.90
16485;DHT22;8353;47.856;12.344;2023-03-24T07:52:32;15.50;99.90
16485;DHT22;8353;47.856;12.344;2023-03-24T07:55:20;15.50;99.90
16485;DHT22;8353;47.856;12.344;2023-03-24T07:58:07;15.50;99.90
16485;DHT22;8353;47.856;12.344;2023-03-24T08:00:56;15.50;99.90
16485;DHT22;8353;47.856;12.344;2023-03-24T08:03:43;15.60;99.90
16485;DHT22;8353;47.856;12.344;2023-03-24T08:06:33;15.80;99.90
16485;DHT22;8353;47.856;12.344;2023-03-24T08:09:21;15.90;99.90
16485;DHT22;8353;47.856;12.344;2023-03-24T08:12:11;15.90;99.90
16485;DHT22;8353;47.856;12.344;2023-03-24T08:14:58;16.00;99.90
16485;DHT22;8353;47.856;12.344;2023-03-24T08:17:47;16.10;99.90
16485;DHT22;8353;47.856;12.344;2023-03-24T08:20:34;16.00;99.90
16485;DHT22;8353;47.856;12.344;2023-03-24T08:23:21;16.10;99.90
16485;DHT22;8353;47.856;12.344;2023-03-24T08:26:10;16.20;99.90
16485;DHT22;8353;47.856;12.344;2023-03-24T08:28:57;16.20;99.90
16485;DHT22;8353;47.856;12.344;2023-03-24T08:31:45;16.20;99.90
16485;DHT22;8353;47.856;12.344;2023-03-24T08:34:38;16.30;99.90
16485;DHT22;8353;47.856;12.344;2023-03-24T08:37:27;16.40;99.90
16485;DHT22;8353;47.856;12.344;2023-03-24T08:40:16;16.50;99.90
16485;DHT22;8353;47.856;12.344;2023-03-24T08:43:12;16.50;99.90
16485;DHT22;8353;47.856;12.344;2023-03-24T08:46:01;16.50;99.90
16485;DHT22;8353;47.856;12.344;2023-03-24T08:48:47;16.60;99.90
16485;DHT22;8353;47.856;12.344;2023-03-24T08:51:36;16.60;99.90
16485;DHT22;8353;47.856;12.344;2023-03-24T08:54:23;16.80;99.90
16485;DHT22;8353;47.856;12.344;2023-03-24T08:57:10;17.00;99.90
16485;DHT22;8353;47.856;12.344;2023-03-24T09:00:00;17.00;99.90
16485;DHT22;8353;47.856;12.344;2023-03-24T09:02:48;17.00;99.90
16485;DHT22;8353;47.856;12.344;2023-03-24T09:05:36;17.20;99.90
16485;DHT22;8353;47.856;12.344;2023-03-24T09:08:24;17.20;99.90
16485;DHT22;8353;47.856;12.344;2023-03-24T09:11:14;17.30;99.90
16485;DHT22;8353;47.856;12.344;2023-03-24T09:14:01;17.20;99.90
16485;DHT22;8353;47.856;12.344;2023-03-24T09:16:50;17.00;99.90
16485;DHT22;8353;47.856;12.344;2023-03-24T09:19:41;16.90;99.90
16485;DHT22;8353;47.856;12.344;2023-03-24T09:22:29;16.70;99.90
16485;DHT22;8353;47.856;12.344;2023-03-24T09:25:20;16.70;99.90
16485;DHT22;8353;47.856;12.344;2023-03-24T09:28:07;16.60;99.90
16485;DHT22;8353;47.856;12.344;2023-03-24T09:30:58;16.60;99.90
16485;DHT22;8353;47.856;12.344;2023-03-24T09:33:45;16.60;99.90
16485;DHT22;8353;47.856;12.344;2023-03-24T09:36:31;16.60;99.90
16485;DHT22;8353;47.856;12.344;2023-03-24T09:39:18;16.40;99.90
16485;DHT22;8353;47.856;12.344;2023-03-24T09:42:14;16.50;99.90
16485;DHT22;8353;47.856;12.344;2023-03-24T09:45:09;16.50;99.90
16485;DHT22;8353;47.856;12.344;2023-03-24T09:48:01;16.50;99.90
16485;DHT22;8353;47.856;12.344;2023-03-24T09:50:52;16.60;99.90
16485;DHT22;8353;47.856;12.344;2023-03-24T09:53:47;16.60;99.90
16485;DHT22;8353;47.856;12.344;2023-03-24T09:56:37;16.70;99.90
16485;DHT22;8353;47.856;12.344;2023-03-24T09:59:33;16.80;99.90
16485;DHT22;8353;47.856;12.344;2023-03-24T10:02:27;16.80;99.90
16485;DHT22;8353;47.856;12.344;2023-03-24T10:05:18;16.80;99.90
16485;DHT22;8353;47.856;12.344;2023-03-24T10:08:11;16.70;99.90
16485;DHT22;8353;47.856;12.344;2023-03-24T10:11:03;16.80;99.90
16485;DHT22;8353;47.856;12.344;2023-03-24T10:13:57;16.80;99.90
16485;DHT22;8353;47.856;12.344;2023-03-24T10:16:56;16.90;99.90
16485;DHT22;8353;47.856;12.344;2023-03-24T10:19:51;16.90;99.90
16485;DHT22;8353;47.856;12.344;2023-03-24T10:22:47;17.20;99.90
16485;DHT22;8353;47.856;12.344;2023-03-24T10:25:47;17.20;99.90
16485;DHT22;8353;47.856;12.344;2023-03-24T10:28:40;17.30;99.90
16485;DHT22;8353;47.856;12.344;2023-03-24T10:31:31;17.40;99.90
16485;DHT22;8353;47.856;12.344;2023-03-24T10:34:21;17.40;99.90
16485;DHT22;8353;47.856;12.344;2023-03-24T10:37:13;17.50;99.90
16485;DHT22;8353;47.856;12.344;2023-03-24T10:40:06;17.50;99.90
16485;DHT22;8353;47.856;12.344;2023-03-24T10:42:59;17.70;99.90
16485;DHT22;8353;47.856;12.344;2023-03-24T10:45:55;17.70;99.90
16485;DHT22;8353;47.856;12.344;2023-03-24T10:48:44;17.60;99.90
16485;DHT22;8353;47.856;12.344;2023-03-24T10:51:32;17.60;99.90
16485;DHT22;8353;47.856;12.344;2023-03-24T10:54:26;17.50;99.90
16485;DHT22;8353;47.856;12.344;2023-03-24T10:57:17;17.40;99.90
16485;DHT22;8353;47.856;12.344;2023-03-24T11:00:06;17.30;99.90
16485;DHT22;8353;47.856;12.344;2023-03-24T11:02:59;17.30;99.90
16485;DHT22;8353;47.856;12.344;2023-03-24T11:05:47;17.20;99.90
16485;DHT22;8353;47.856;12.344;2023-03-24T11:08:37;17.20;99.90
16485;DHT22;8353;47.856;12.344;2023-03-24T11:11:29;17.20;99.90
16485;DHT22;8353;47.856;12.344;2023-03-24T11:14:21;17.20;99.90
16485;DHT22;8353;47.856;12.344;2023-03-24T11:17:13;17.10;99.90
16485;DHT22;8353;47.856;12.344;2023-03-24T11:20:01;17.10;99.90
16485;DHT22;8353;47.856;12.344;2023-03-24T11:23:00;17.10;99.90
16485;DHT22;8353;47.856;12.344;2023-03-24T11:26:01;17.20;99.90
16485;DHT22;8353;47.856;12.344;2023-03-24T11:28:51;17.10;99.90
16485;DHT22;8353;47.856;12.344;2023-03-24T11:31:39;17.20;99.90
16485;DHT22;8353;47.856;12.344;2023-03-24T11:34:29;17.20;99.90
16485;DHT22;8353;47.856;12.344;2023-03-24T11:37:25;17.20;99.90
16485;DHT22;8353;47.856;12.344;2023-03-24T11:40:17;17.10;99.90
16485;DHT22;8353;47.856;12.344;2023-03-24T11:43:18;17.10;99.90
16485;DHT22;8353;47.856;12.344;2023-03-24T11:46:10;17.10;99.90
16485;DHT22;8353;47.856;12.344;2023-03-24T11:48:59;17.10;99.90
16485;DHT22;8353;47.856;12.344;2023-03-24T11:51:49;17.00;99.90
16485;DHT22;8353;47.856;12.344;2023-03-24T11:54:37;16.90;99.90
16485;DHT22;8353;47.856;12.344;2023-03-24T11:57:37;16.90;99.90
16485;DHT22;8353;47.856;12.344;2023-03-24T12:00:31;16.70;99.90
16485;DHT22;8353;47.856;12.344;2023-03-24T12:06:49;16.60;99.90
16485;DHT22;8353;47.856;12.344;2023-03-24T12:09:45;16.50;99.90
16485;DHT22;8353;47.856;12.344;2023-03-24T12:12:39;16.50;99.90
16485;DHT22;8353;47.856;12.344;2023-03-24T12:15:38;16.60;99.90
16485;DHT22;8353;47.856;12.344;2023-03-24T12:18:49;16.60;99.90
16485;DHT22;8353;47.856;12.344;2023-03-24T12:21:45;16.70;99.90
16485;DHT22;8353;47.856;12.344;2023-03-24T12:27:56;16.70;99.90
16485;DHT22;8353;47.856;12.344;2023-03-24T12:30:58;16.80;99.90
16485;DHT22;8353;47.856;12.344;2023-03-24T12:33:55;16.80;99.90
16485;DHT22;8353;47.856;12.344;2023-03-24T12:36:49;16.80;99.90
16485;DHT22;8353;47.856;12.344;2023-03-24T12:39:44;16.90;99.90
16485;DHT22;8353;47.856;12.344;2023-03-24T12:42:39;16.90;99.90
16485;DHT22;8353;47.856;12.344;2023-03-24T12:45:32;16.90;99.90
16485;DHT22;8353;47.856;12.344;2023-03-24T12:48:37;17.00;99.90
16485;DHT22;8353;47.856;12.344;2023-03-24T12:51:35;16.90;99.90
16485;DHT22;8353;47.856;12.344;2023-03-24T12:54:35;17.00;99.90
16485;DHT22;8353;47.856;12.344;2023-03-24T12:57:27;17.00;99.90
16485;DHT22;8353;47.856;12.344;2023-03-24T13:00:20;17.00;99.90
16485;DHT22;8353;47.856;12.344;2023-03-24T13:03:11;17.00;99.90
16485;DHT22;8353;47.856;12.344;2023-03-24T13:06:17;17.00;99.90
16485;DHT22;8353;47.856;12.344;2023-03-24T13:09:14;16.90;99.90
16485;DHT22;8353;47.856;12.344;2023-03-24T13:12:09;16.80;99.90
16485;DHT22;8353;47.856;12.344;2023-03-24T13:15:02;16.70;99.90
16485;DHT22;8353;47.856;12.344;2023-03-24T13:17:53;16.90;99.90
16485;DHT22;8353;47.856;12.344;2023-03-24T13:20:44;17.00;99.90
16485;DHT22;8353;47.856;12.344;2023-03-24T13:23:42;16.90;99.90
16485;DHT22;8353;47.856;12.344;2023-03-24T13:26:36;16.90;99.90
16485;DHT22;8353;47.856;12.344;2023-03-24T13:29:43;16.90;99.90
16485;DHT22;8353;47.856;12.344;2023-03-24T13:32:35;16.70;99.90
16485;DHT22;8353;47.856;12.344;2023-03-24T13:35:35;16.60;99.90
16485;DHT22;8353;47.856;12.344;2023-03-24T13:38:28;16.60;99.90
16485;DHT22;8353;47.856;12.344;2023-03-24T13:41:22;16.70;99.90
16485;DHT22;8353;47.856;12.344;2023-03-24T13:44:17;16.70;99.90
16485;DHT22;8353;47.856;12.344;2023-03-24T13:47:08;16.90;99.90
16485;DHT22;8353;47.856;12.344;2023-03-24T13:50:00;17.10;99.90
16485;DHT22;8353;47.856;12.344;2023-03-24T13:52:49;17.10;99.90
16485;DHT22;8353;47.856;12.344;2023-03-24T13:55:38;17.50;99.90
16485;DHT22;8353;47.856;12.344;2023-03-24T13:58:44;17.70;99.90
16485;DHT22;8353;47.856;12.344;2023-03-24T14:01:35;17.80;99.90
16485;DHT22;8353;47.856;12.344;2023-03-24T14:04:27;17.80;99.90
16485;DHT22;8353;47.856;12.344;2023-03-24T14:07:41;17.70;99.90
16485;DHT22;8353;47.856;12.344;2023-03-24T14:10:40;17.70;99.90
16485;DHT22;8353;47.856;12.344;2023-03-24T14:13:44;17.70;99.90
16485;DHT22;8353;47.856;12.344;2023-03-24T14:16:41;17.70;99.90
16485;DHT22;8353;47.856;12.344;2023-03-24T14:19:30;17.70;99.90
16485;DHT22;8353;47.856;12.344;2023-03-24T14:22:21;17.60;99.90
16485;DHT22;8353;47.856;12.344;2023-03-24T14:25:21;17.70;99.90
16485;DHT22;8353;47.856;12.344;2023-03-24T14:28:31;17.60;99.90
16485;DHT22;8353;47.856;12.344;2023-03-24T14:31:27;17.50;99.90
16485;DHT22;8353;47.856;12.344;2023-03-24T14:34:17;17.40;99.90
16485;DHT22;8353;47.856;12.344;2023-03-24T14:37:07;17.40;99.90
16485;DHT22;8353;47.856;12.344;2023-03-24T14:39:55;17.50;99.90
16485;DHT22;8353;47.856;12.344;2023-03-24T14:42:54;17.60;99.90
16485;DHT22;8353;47.856;12.344;2023-03-24T14:46:03;17.70;99.90
16485;DHT22;8353;47.856;12.344;2023-03-24T14:48:55;17.80;99.90
16485;DHT22;8353;47.856;12.344;2023-03-24T14:51:46;17.90;99.90
16485;DHT22;8353;47.856;12.344;2023-03-24T14:54:37;17.90;99.90
16485;DHT22;8353;47.856;12.344;2023-03-24T14:57:29;17.80;99.90
16485;DHT22;8353;47.856;12.344;2023-03-24T15:00:19;17.80;99.90
16485;DHT22;8353;47.856;12.344;2023-03-24T15:03:17;17.70;99.90
16485;DHT22;8353;47.856;12.344;2023-03-24T15:06:14;17.80;99.90
16485;DHT22;8353;47.856;12.344;2023-03-24T15:09:08;17.90;99.90
16485;DHT22;8353;47.856;12.344;2023-03-24T15:11:58;17.80;99.90
16485;DHT22;8353;47.856;12.344;2023-03-24T15:14:46;17.80;99.90
16485;DHT22;8353;47.856;12.344;2023-03-24T15:17:33;17.70;99.90
16485;DHT22;8353;47.856;12.344;2023-03-24T15:20:22;17.80;99.90
16485;DHT22;8353;47.856;12.344;2023-03-24T15:23:16;17.80;99.90
16485;DHT22;8353;47.856;12.344;2023-03-24T15:26:11;17.90;99.90
16485;DHT22;8353;47.856;12.344;2023-03-24T15:28:59;17.80;99.90
16485;DHT22;8353;47.856;12.344;2023-03-24T15:31:48;17.70;99.90
16485;DHT22;8353;47.856;12.344;2023-03-24T15:34:39;17.70;99.90
16485;DHT22;8353;47.856;12.344;2023-03-24T15:37:32;17.50;99.90
16485;DHT22;8353;47.856;12.344;2023-03-24T15:40:36;17.50;99.90
16485;DHT22;8353;47.856;12.344;2023-03-24T15:43:25;17.40;99.90
16485;DHT22;8353;47.856;12.344;2023-03-24T15:46:21;17.50;99.90
16485;DHT22;8353;47.856;12.344;2023-03-24T15:49:17;17.50;99.90
16485;DHT22;8353;47.856;12.344;2023-03-24T15:52:22;17.50;99.90
16485;DHT22;8353;47.856;12.344;2023-03-24T15:55:29;17.50;99.90
16485;DHT22;8353;47.856;12.344;2023-03-24T15:58:23;17.40;99.90
16485;DHT22;8353;47.856;12.344;2023-03-24T16:01:11;17.20;99.90
16485;DHT22;8353;47.856;12.344;2023-03-24T16:04:04;16.90;99.90
16485;DHT22;8353;47.856;12.344;2023-03-24T16:06:52;16.70;99.90
16485;DHT22;8353;47.856;12.344;2023-03-24T16:09:42;16.40;99.90
16485;DHT22;8353;47.856;12.344;2023-03-24T16:12:31;16.20;99.90
16485;DHT22;8353;47.856;12.344;2023-03-24T16:15:19;15.90;99.90
16485;DHT22;8353;47.856;12.344;2023-03-24T16:18:10;15.80;99.90
16485;DHT22;8353;47.856;12.344;2023-03-24T16:20:58;15.50;99.90
16485;DHT22;8353;47.856;12.344;2023-03-24T16:23:46;15.30;99.90
16485;DHT22;8353;47.856;12.344;2023-03-24T16:26:33;15.10;99.90
16485;DHT22;8353;47.856;12.344;2023-03-24T16:29:22;15.10;99.90
16485;DHT22;8353;47.856;12.344;2023-03-24T16:32:11;15.00;99.90
16485;DHT22;8353;47.856;12.344;2023-03-24T16:34:58;14.80;99.90
16485;DHT22;8353;47.856;12.344;2023-03-24T16:37:45;14.80;99.90
16485;DHT22;8353;47.856;12.344;2023-03-24T16:40:35;14.80;99.90
16485;DHT22;8353;47.856;12.344;2023-03-24T16:43:23;14.70;99.90
16485;DHT22;8353;47.856;12.344;2023-03-24T16:46:13;14.60;99.90
16485;DHT22;8353;47.856;12.344;2023-03-24T16:49:04;14.50;99.90
16485;DHT22;8353;47.856;12.344;2023-03-24T16:51:51;14.60;99.90
16485;DHT22;8353;47.856;12.344;2023-03-24T16:54:38;14.50;99.90
16485;DHT22;8353;47.856;12.344;2023-03-24T16:57:25;14.40;99.90
16485;DHT22;8353;47.856;12.344;2023-03-24T17:00:13;14.40;99.90
16485;DHT22;8353;47.856;12.344;2023-03-24T17:03:00;14.50;99.90
16485;DHT22;8353;47.856;12.344;2023-03-24T17:05:49;14.20;99.90
16485;DHT22;8353;47.856;12.344;2023-03-24T17:08:36;14.20;99.90
16485;DHT22;8353;47.856;12.344;2023-03-24T17:11:26;14.10;99.90
16485;DHT22;8353;47.856;12.344;2023-03-24T17:14:13;14.00;99.90
16485;DHT22;8353;47.856;12.344;2023-03-24T17:17:01;13.90;99.90
16485;DHT22;8353;47.856;12.344;2023-03-24T17:19:49;13.90;99.90
16485;DHT22;8353;47.856;12.344;2023-03-24T17:22:38;13.80;99.90
16485;DHT22;8353;47.856;12.344;2023-03-24T17:25:25;13.80;99.90
16485;DHT22;8353;47.856;12.344;2023-03-24T17:28:15;13.60;99.90
16485;DHT22;8353;47.856;12.344;2023-03-24T17:31:02;13.80;99.90
16485;DHT22;8353;47.856;12.344;2023-03-24T17:33:49;13.70;99.90
16485;DHT22;8353;47.856;12.344;2023-03-24T17:36:36;13.70;99.90
16485;DHT22;8353;47.856;12.344;2023-03-24T17:39:24;13.70;99.90
16485;DHT22;8353;47.856;12.344;2023-03-24T17:42:11;13.90;99.90
16485;DHT22;8353;47.856;12.344;2023-03-24T17:44:58;14.10;99.90
16485;DHT22;8353;47.856;12.344;2023-03-24T17:47:45;14.10;99.90
16485;DHT22;8353;47.856;12.344;2023-03-24T17:50:32;14.00;99.90
16485;DHT22;8353;47.856;12.344;2023-03-24T17:53:20;13.90;99.90
16485;DHT22;8353;47.856;12.344;2023-03-24T17:56:11;13.90;99.90
16485;DHT22;8353;47.856;12.344;2023-03-24T17:58:58;13.70;99.90
16485;DHT22;8353;47.856;12.344;2023-03-24T18:01:46;13.80;99.90
16485;DHT22;8353;47.856;12.344;2023-03-24T18:04:34;13.80;99.90
16485;DHT22;8353;47.856;12.344;2023-03-24T18:07:22;13.80;99.90
16485;DHT22;8353;47.856;12.344;2023-03-24T18:10:09;13.80;99.90
16485;DHT22;8353;47.856;12.344;2023-03-24T18:12:57;13.80;99.90
16485;DHT22;8353;47.856;12.344;2023-03-24T18:15:46;13.70;99.90